Latest Weather Observations for Ouse

IDT60801

Issued at 6:32 am EST Saturday 24 June 2017 (issued every 30 minutes, with the page automatically refreshed every 10 minutes)

About weather observations | Map of weather stations | Latest weather observations for TAS | Other Formats
Station Details ID: 095048 Name: OUSE FIRE STATION Lat: -42.48 Lon: 146.71 Height: 90.0 m
Data from the previous 72 hours. | See also: Recent months at Ouse
Date/Time
EST
Temp
°C
App
Temp
°C
Dew
Point
°C
Rel
Hum
%
Delta-T
°C
Wind Press
QNH
hPa
Press
MSL
hPa
Rain since
9am
mm
Dir  Spd
km/h
Gust
km/h
Spd
kts
Gust
kts
24/06:30am 2.9 -1.8 1.1 88 0.7 N 15 20 8 11 1009.3 1009.5 6.0
24/06:00am 4.5 0.2 0.8 77 1.4 NNW 13 24 7 13 1009.0 1009.2 6.0
24/05:30am 4.2 -0.4 1.6 83 1.0 NW 15 28 8 15 1008.8 1009.0 6.0
24/05:00am 1.6 -1.9 1.2 97 0.2 N 9 11 5 6 1008.8 1009.0 6.0
24/04:30am 1.7 -2.6 1.1 96 0.2 N 13 17 7 9 1008.9 1009.1 6.0
24/04:00am 2.0 -2.3 1.1 94 0.3 N 13 17 7 9 1009.0 1009.2 6.0
24/03:30am 3.2 -2.4 0.9 85 0.9 NW 20 28 11 15 1008.9 1009.1 6.0
24/03:00am 2.3 -1.7 0.5 88 0.7 NNW 11 17 6 9 1009.2 1009.4 6.0
24/02:30am 1.2 -3.2 0.2 93 0.4 NNE 13 19 7 10 1008.3 1008.5 6.0
24/02:00am 1.3 -3.5 0.4 94 0.3 NNE 15 17 8 9 1008.2 1008.4 6.0
24/01:30am 1.3 -2.3 0.9 97 0.1 N 9 15 5 8 1008.3 1008.5 6.0
24/01:00am 2.0 -1.1 1.3 95 0.3 N 7 13 4 7 1008.0 1008.2 6.0
24/12:30am 1.6 -2.6 1.5 99 0.0 N 13 17 7 9 1007.9 1008.1 6.0
24/12:00am 2.6 -1.1 2.2 97 0.2 NW 11 17 6 9 1007.7 1007.9 5.8
 
Date/Time
EST
Temp
°C
App
Temp
°C
Dew
Point
°C
Rel
Hum
%
Delta-T
°C
Wind Press
QNH
hPa
Press
MSL
hPa
Rain since
9am
mm
Dir  Spd
km/h
Gust
km/h
Spd
kts
Gust
kts
23/11:30pm 3.5 -0.1 2.9 96 0.2 NW 11 17 6 9 1007.9 1008.1 5.4
23/11:00pm 3.6 1.4 3.2 97 0.2 W 4 7 2 4 1007.6 1007.8 5.4
23/10:30pm 4.1 0.9 2.9 92 0.5 WSW 9 19 5 10 1006.8 1007.0 5.2
23/10:00pm 2.8 -0.6 1.8 93 0.4 N 9 17 5 9 1006.2 1006.4 4.8
23/09:30pm 4.2 -0.3 2.4 88 0.7 NW 15 28 8 15 1006.0 1006.2 4.8
23/09:00pm 3.9 -0.6 2.1 88 0.7 NNW 15 20 8 11 1005.7 1005.9 4.8
23/08:30pm 4.0 0.4 2.8 92 0.5 NNW 11 19 6 10 1005.9 1006.1 4.8
23/08:02pm 5.6 0.7 1.9 77 1.5 W 17 48 9 26 1005.6 1005.8 4.0
23/08:00pm 5.6 1.8 1.9 77 1.5 WNW 11 20 6 11 1005.4 1005.6 4.0
23/07:30pm 5.9 1.3 1.4 73 1.8 NW 15 22 8 12 1004.6 1004.9 4.0
23/07:00pm 6.1 0.9 2.6 78 1.5 NW 19 30 10 16 1004.2 1004.5 4.0
23/06:30pm 6.2 1.5 3.2 81 1.3 NW 17 30 9 16 1003.9 1004.2 4.0
23/06:00pm 6.5 2.0 4.2 85 1.0 W 17 30 9 16 1003.8 1004.1 3.8
23/05:30pm 7.5 2.4 3.9 78 1.6 W 20 35 11 19 1002.6 1002.9 3.8
23/05:00pm 8.9 3.2 5.1 77 1.7 W 24 43 13 23 1001.6 1001.8 3.8
23/04:56pm 9.3 2.9 5.1 75 1.9 W 28 43 15 23 1001.4 1001.6 3.8
23/04:30pm 9.1 5.4 6.5 84 1.2 NW 15 24 8 13 1000.5 1000.7 3.8
23/04:00pm 9.1 5.1 6.5 84 1.2 NNW 17 26 9 14 1000.3 1000.5 3.8
23/03:30pm 9.3 4.3 6.6 83 1.3 NNW 22 35 12 19 1000.4 1000.6 3.8
23/03:00pm 9.1 4.2 7.1 87 0.9 NW 22 35 12 19 1001.3 1001.5 3.4
23/02:30pm 9.8 4.2 7.1 83 1.3 WNW 26 44 14 24 1001.1 1001.3 2.4
23/02:00pm 12.0 6.0 7.1 72 2.4 NW 28 50 15 27 1000.5 1000.7 0.4
23/01:30pm 14.3 6.8 6.2 58 3.9 NW 35 61 19 33 1000.3 1000.5 0.0
23/01:00pm 13.5 7.1 7.1 65 3.1 NW 30 50 16 27 1000.9 1001.1 0.0
23/12:32pm 13.3 6.8 6.6 64 3.2 NW 30 50 16 27 1001.7 1001.9 0.0
23/12:30pm 13.3 6.9 6.9 65 3.1 NW 30 44 16 24 1001.9 1002.2 0.0
23/12:00pm 14.0 7.1 6.6 61 3.6 NW 32 52 17 28 1002.6 1002.9 0.0
23/11:55am 14.1 7.9 6.2 59 3.8 NNW 28 52 15 28 1002.6 1002.9 0.0
23/11:30am 13.2 7.8 6.5 64 3.2 NNW 24 46 13 25 1003.7 1004.0 0.0
23/11:00am 13.0 7.7 6.8 66 3.0 NNW 24 39 13 21 1004.8 1005.0 0.0
23/10:30am 13.4 8.8 6.3 62 3.4 NNW 20 33 11 18 1005.2 1005.4 0.0
23/10:00am 13.5 9.5 6.6 63 3.3 NNW 17 28 9 15 1006.1 1006.3 0.0
23/09:30am 12.5 9.2 6.5 67 2.9 N 13 20 7 11 1006.5 1006.7 0.0
23/09:00am 8.8 5.5 6.3 84 1.2 N 13 19 7 10 1007.3 1007.5 0.2
23/08:30am 5.1 1.9 5.1 100 0.0 N 11 17 6 9 1007.3 1007.5 0.2
23/08:00am 2.6 0.6 2.5 99 0.0 NNW 2 7 1 4 1008.1 1008.3 0.2
23/07:30am 3.6 1.0 3.2 97 0.2 NNE 6 9 3 5 1008.7 1008.9 0.2
23/07:00am 4.5 1.6 4.5 100 0.0 NNW 9 13 5 7 1008.9 1009.1 0.2
23/06:30am 3.7 0.6 3.7 100 0.0 NNW 9 15 5 8 1009.0 1009.2 0.2
23/06:00am 2.0 -0.8 2.0 100 0.0 N 6 7 3 4 1009.4 1009.6 0.2
23/05:30am 1.6 -1.3 1.6 100 0.0 WSW 6 7 3 4 1009.2 1009.4 0.2
23/05:00am 1.0 -1.2 1.0 100 0.0 SSE 2 6 1 3 1009.9 1010.1 0.0
23/04:30am 0.3 -1.6 0.3 100 0.0 CALM 0 0 0 0 1010.3 1010.5 0.0
23/04:00am -0.3 -3.5 -0.3 100 0.0 NNW 6 11 3 6 1011.0 1011.3 0.0
23/03:30am -0.4 -3.8 -0.4 100 0.0 NW 7 9 4 5 1011.7 1012.0 0.0
23/03:00am -1.1 -3.2 -1.1 100 0.0 CALM 0 6 0 3 1012.3 1012.6 0.0
23/02:30am -0.7 -2.8 -0.8 99 0.0 CALM 0 0 0 0 1012.8 1013.1 0.0
23/02:00am -0.2 -2.2 -0.3 99 0.0 CALM 0 0 0 0 1013.3 1013.6 0.0
23/01:30am 0.7 -2.0 0.6 99 0.0 SW 4 7 2 4 1013.8 1014.1 0.0
23/01:00am 1.2 -1.8 1.1 99 0.0 SE 6 9 3 5 1014.2 1014.5 0.0
23/12:30am 1.3 -1.6 1.3 100 0.0 NNW 6 11 3 6 1014.4 1014.7 0.0
23/12:00am 1.0 -0.9 0.6 97 0.1 CALM 0 0 0 0 1014.9 1015.2 0.0
 
Date/Time
EST
Temp
°C
App
Temp
°C
Dew
Point
°C
Rel
Hum
%
Delta-T
°C
Wind Press
QNH
hPa
Press
MSL
hPa
Rain since
9am
mm
Dir  Spd
km/h
Gust
km/h
Spd
kts
Gust
kts
22/11:30pm 1.6 -0.2 1.2 97 0.2 CALM 0 0 0 0 1015.3 1015.6 0.0
22/11:00pm 1.8 -1.1 1.5 98 0.1 SE 6 9 3 5 1015.9 1016.2 0.0
22/10:30pm 1.4 -0.4 1.0 97 0.2 CALM 0 0 0 0 1016.5 1016.7 0.0
22/10:00pm 1.5 -0.7 0.8 95 0.3 N 2 7 1 4 1016.8 1017.0 0.0
22/09:30pm 1.6 -1.6 0.7 94 0.3 NNW 7 11 4 6 1017.3 1017.5 0.0
22/09:00pm 1.3 -2.1 -0.3 89 0.6 NNW 7 11 4 6 1017.5 1017.7 0.0
22/08:30pm 2.6 -0.9 1.0 89 0.6 NW 9 11 5 6 1017.8 1018.0 0.0
22/08:00pm 2.7 -1.3 0.6 86 0.8 NNE 11 15 6 8 1017.9 1018.1 0.0
22/07:30pm 2.9 -0.6 1.3 89 0.6 NNE 9 13 5 7 1018.1 1018.3 0.0
22/07:00pm 3.9 0.2 2.1 88 0.7 N 11 15 6 8 1018.3 1018.5 0.0
22/06:30pm 1.1 -2.1 0.5 96 0.2 NNE 7 9 4 5 1018.8 1019.0 0.0
22/06:00pm 1.3 -1.8 0.3 93 0.4 N 6 9 3 5 1018.8 1019.0 0.0
22/05:30pm 1.8 -1.2 0.5 91 0.5 NNW 6 7 3 4 1019.2 1019.4 0.0
22/05:00pm 3.0 -0.4 1.7 91 0.5 NNW 9 11 5 6 1019.9 1020.1 0.0
22/04:30pm 4.1 2.4 1.6 84 1.0 CALM 0 0 0 0 1020.2 1020.5 0.0
22/04:00pm 5.0 3.3 1.8 80 1.3 CALM 0 0 0 0 1020.3 1020.6 0.0
22/03:30pm 5.0 3.3 1.7 79 1.3 CALM 0 0 0 0 1020.4 1020.7 0.0
22/03:00pm 5.3 3.6 1.8 78 1.4 CALM 0 0 0 0 1020.9 1021.2 0.0
22/02:30pm 3.7 1.9 0.9 82 1.1 CALM 0 6 0 3 1021.4 1021.7 0.0
22/02:00pm 2.5 -0.4 1.2 91 0.5 SE 6 7 3 4 1021.9 1022.2 0.0
22/01:30pm 1.4 -1.6 0.8 96 0.2 S 6 9 3 5 1022.7 1023.0 0.0
22/01:00pm 0.6 -1.7 0.5 99 0.0 ESE 2 6 1 3 1023.1 1023.4 0.0
22/12:30pm -0.1 -2.5 -0.2 99 0.0 ESE 2 7 1 4 1024.2 1024.5 0.0
22/12:00pm -0.7 -2.8 -0.8 99 0.0 CALM 0 6 0 3 1024.9 1025.2 0.0
22/11:30am -1.6 -3.8 -1.7 99 0.0 CALM 0 4 0 2 1025.5 1025.8 0.0
22/11:00am -2.3 -5.0 -2.4 99 -0.1 SE 2 6 1 3 1026.1 1026.4 0.0
22/10:30am -3.0 -5.4 -3.1 99 -0.1 CALM 0 0 0 0 1026.5 1026.8 0.0
22/10:00am -3.4 -6.2 -3.5 99 -0.1 ESE 2 7 1 4 1026.8 1027.1 0.0
22/09:30am -3.8 -6.3 -3.9 99 -0.1 CALM 0 0 0 0 1026.9 1027.2 0.0
22/09:00am -4.5 -7.1 -4.8 98 -0.1 CALM 0 0 0 0 1027.1 1027.4 0.0
22/08:30am -4.8 -7.8 -4.9 99 -0.2 N 2 6 1 3 1027.5 1027.8 0.0
22/08:00am -5.1 -7.7 -5.4 98 -0.1 CALM 0 9 0 5 1027.7 1027.9 0.0
22/07:30am -4.8 -7.4 -4.9 99 -0.2 CALM 0 0 0 0 1027.9 1028.1 0.0
22/07:00am -4.6 -7.2 -4.9 98 -0.1 CALM 0 0 0 0 1027.9 1028.1 0.0
22/06:30am -5.1 -7.8 -5.5 97 -0.1 CALM 0 0 0 0 1028.1 1028.3 0.0
22/06:00am -4.9 -7.5 -5.2 98 -0.1 CALM 0 0 0 0 1028.2 1028.4 0.0
22/05:30am -4.7 -7.3 -5.0 98 -0.1 CALM 0 0 0 0 1028.3 1028.5 0.0
22/05:00am -4.2 -6.7 -4.3 99 -0.1 CALM 0 0 0 0 1028.2 1028.4 0.0
22/04:30am -4.1 -6.6 -4.2 99 -0.1 CALM 0 0 0 0 1028.3 1028.5 0.0
22/04:00am -3.9 -6.4 -3.9 100 0.0 CALM 0 0 0 0 1028.5 1028.7 0.0
22/03:30am -3.4 -5.8 -3.4 100 0.0 CALM 0 0 0 0 1028.6 1028.8 0.0
22/03:00am -3.5 -6.7 -3.6 99 -0.1 NNW 4 7 2 4 1028.7 1028.9 0.0
22/02:30am -3.3 -5.7 -3.4 99 -0.1 CALM 0 0 0 0 1028.8 1029.0 0.0
22/02:00am -2.9 -5.3 -3.0 99 -0.1 CALM 0 0 0 0 1028.9 1029.1 0.0
22/01:30am -3.1 -6.3 -3.4 98 0.0 NNW 4 7 2 4 1028.9 1029.1 0.0
22/01:00am -2.8 -5.2 -3.2 97 0.0 CALM 0 0 0 0 1029.1 1029.4 0.0
22/12:30am -2.8 -6.3 -3.2 97 0.0 NW 6 7 3 4 1029.4 1029.7 0.0
22/12:00am -2.2 -4.9 -2.5 98 0.0 NNE 2 7 1 4 1029.7 1030.0 0.0
 
Date/Time
EST
Temp
°C
App
Temp
°C
Dew
Point
°C
Rel
Hum
%
Delta-T
°C
Wind Press
QNH
hPa
Press
MSL
hPa
Rain since
9am
mm
Dir  Spd
km/h
Gust
km/h
Spd
kts
Gust
kts
21/11:30pm -1.8 -4.1 -2.1 98 0.0 CALM 0 0 0 0 1029.7 1030.0 0.0
21/11:00pm -1.7 -5.1 -2.3 96 0.1 NNW 6 7 3 4 1029.6 1029.9 0.0
21/10:30pm -1.1 -4.4 -1.4 98 0.1 NNW 6 9 3 5 1029.7 1030.0 0.0
21/10:00pm -0.6 -2.7 -0.9 98 0.1 CALM 0 0 0 0 1029.7 1030.0 0.0
21/09:30pm 0.0 -3.2 -0.7 95 0.3 NNW 6 9 3 5 1029.7 1030.0 0.0
21/09:00pm 0.6 -2.6 -0.5 92 0.4 N 6 9 3 5 1029.6 1029.9 0.0
21/08:30pm 1.8 -0.1 0.5 91 0.5 CALM 0 6 0 3 1029.4 1029.7 0.0
21/08:00pm 3.2 -0.2 1.6 89 0.6 N 9 13 5 7 1029.4 1029.7 0.0
21/07:30pm 3.9 0.2 2.1 88 0.7 NNW 11 20 6 11 1029.4 1029.7 0.0
21/07:00pm 4.2 0.9 2.6 89 0.6 NW 9 11 5 6 1029.1 1029.4 0.0
21/06:30pm 3.7 -0.3 2.7 93 0.4 NNE 13 15 7 8 1028.7 1028.9 0.0
21/06:00pm 2.8 -0.6 1.6 92 0.5 NNW 9 11 5 6 1028.4 1028.6 0.0
21/05:30pm 3.7 0.9 2.1 89 0.6 N 6 9 3 5 1028.1 1028.3 0.0
21/05:00pm 4.7 1.7 2.2 84 1.0 NW 7 9 4 5 1027.5 1027.8 0.0
21/04:30pm 6.1 2.8 2.7 79 1.4 NW 9 11 5 6 1027.3 1027.6 0.0
21/04:00pm 7.8 3.8 3.1 72 2.0 NW 13 19 7 10 1027.1 1027.4 0.0
21/03:30pm 9.5 5.5 2.8 63 2.9 W 13 17 7 9 1026.8 1027.1 0.0
21/03:00pm 9.2 5.3 3.2 66 2.6 WNW 13 19 7 10 1026.6 1026.9 0.0
21/02:30pm 9.5 6.5 2.1 60 3.1 W 7 15 4 8 1026.3 1026.6 0.0
21/02:00pm 9.6 5.9 2.2 60 3.1 WNW 11 17 6 9 1026.1 1026.4 0.0
21/01:30pm 10.9 6.6 3.0 58 3.4 WSW 15 20 8 11 1025.9 1026.2 0.0
21/01:00pm 9.9 6.2 2.3 59 3.2 W 11 19 6 10 1025.9 1026.2 0.0
21/12:30pm 9.7 6.7 1.8 58 3.3 WSW 7 13 4 7 1025.9 1026.2 0.0
21/12:00pm 10.2 6.1 2.3 58 3.3 W 13 17 7 9 1026.0 1026.3 0.0
21/11:30am 9.4 5.8 2.9 64 2.8 NW 11 20 6 11 1026.1 1026.4 0.0
21/11:00am 9.1 5.1 2.7 64 2.7 NW 13 17 7 9 1026.1 1026.4 0.0
21/10:30am 8.9 5.3 2.7 65 2.6 NW 11 17 6 9 1026.0 1026.3 0.0
21/10:00am 8.2 4.3 3.3 71 2.1 NW 13 20 7 11 1025.8 1026.1 0.0
21/09:30am 7.5 3.7 3.9 78 1.6 NNW 13 17 7 9 1025.4 1025.7 0.0
21/09:00am 6.7 3.2 3.3 79 1.4 N 11 15 6 8 1024.8 1025.1 3.0
21/08:30am 6.4 3.6 2.9 78 1.5 NNW 7 13 4 7 1024.3 1024.6 3.0
21/08:00am 5.9 2.6 2.5 79 1.4 WNW 9 15 5 8 1024.0 1024.3 3.0
21/07:30am 6.9 2.5 2.6 74 1.8 WNW 15 20 8 11 1023.4 1023.7 3.0
21/07:00am 6.9 1.7 2.4 73 1.9 WNW 19 28 10 15 1022.8 1023.1 3.0

Other Formats:

Comma delimited format used in spreadsheet applications
http://www.bom.gov.au/fwo/IDT60801/IDT60801.94957.axf

JavaScript Object Notation format (JSON) in row-major order
http://www.bom.gov.au/fwo/IDT60801/IDT60801.94957.json